sensor_id;sensor_type;location;lat;lon;timestamp;P1;durP1;ratioP1;P2;durP2;ratioP2
22441;SDS011;11388;54.456;9.752;2023-02-12T00:02:17;2.72;;;1.30;;
22441;SDS011;11388;54.456;9.752;2023-02-12T00:04:43;2.20;;;1.30;;
22441;SDS011;11388;54.456;9.752;2023-02-12T00:07:09;1.88;;;1.27;;
22441;SDS011;11388;54.456;9.752;2023-02-12T00:09:35;2.40;;;1.30;;
22441;SDS011;11388;54.456;9.752;2023-02-12T00:12:01;4.25;;;1.67;;
22441;SDS011;11388;54.456;9.752;2023-02-12T00:14:27;4.03;;;1.50;;
22441;SDS011;11388;54.456;9.752;2023-02-12T00:16:53;3.78;;;1.40;;
22441;SDS011;11388;54.456;9.752;2023-02-12T00:19:18;4.18;;;1.70;;
22441;SDS011;11388;54.456;9.752;2023-02-12T00:21:44;5.68;;;1.70;;
22441;SDS011;11388;54.456;9.752;2023-02-12T00:24:10;2.58;;;1.38;;
22441;SDS011;11388;54.456;9.752;2023-02-12T00:26:35;3.75;;;1.65;;
22441;SDS011;11388;54.456;9.752;2023-02-12T00:29:01;2.88;;;1.48;;
22441;SDS011;11388;54.456;9.752;2023-02-12T00:31:27;4.22;;;1.67;;
22441;SDS011;11388;54.456;9.752;2023-02-12T00:33:55;4.32;;;1.60;;
22441;SDS011;11388;54.456;9.752;2023-02-12T00:36:23;3.25;;;1.75;;
22441;SDS011;11388;54.456;9.752;2023-02-12T00:38:51;5.82;;;2.08;;
22441;SDS011;11388;54.456;9.752;2023-02-12T00:41:18;5.57;;;2.08;;
22441;SDS011;11388;54.456;9.752;2023-02-12T00:43:44;5.97;;;1.90;;
22441;SDS011;11388;54.456;9.752;2023-02-12T00:46:10;6.55;;;1.90;;
22441;SDS011;11388;54.456;9.752;2023-02-12T00:48:36;7.20;;;2.53;;
22441;SDS011;11388;54.456;9.752;2023-02-12T00:51:02;4.15;;;1.80;;
22441;SDS011;11388;54.456;9.752;2023-02-12T00:53:29;6.20;;;2.13;;
22441;SDS011;11388;54.456;9.752;2023-02-12T00:55:55;5.45;;;1.92;;
22441;SDS011;11388;54.456;9.752;2023-02-12T00:58:21;4.97;;;1.90;;
22441;SDS011;11388;54.456;9.752;2023-02-12T01:00:47;7.13;;;2.47;;
22441;SDS011;11388;54.456;9.752;2023-02-12T01:03:13;6.78;;;2.20;;
22441;SDS011;11388;54.456;9.752;2023-02-12T01:05:39;10.52;;;2.88;;
22441;SDS011;11388;54.456;9.752;2023-02-12T01:08:05;10.73;;;2.75;;
22441;SDS011;11388;54.456;9.752;2023-02-12T01:10:31;7.95;;;2.90;;
22441;SDS011;11388;54.456;9.752;2023-02-12T01:12:57;7.90;;;2.35;;
22441;SDS011;11388;54.456;9.752;2023-02-12T01:15:23;5.95;;;2.30;;
22441;SDS011;11388;54.456;9.752;2023-02-12T01:17:52;6.68;;;2.25;;
22441;SDS011;11388;54.456;9.752;2023-02-12T01:20:18;5.15;;;1.92;;
22441;SDS011;11388;54.456;9.752;2023-02-12T01:22:46;6.28;;;2.00;;
22441;SDS011;11388;54.456;9.752;2023-02-12T01:25:12;7.25;;;2.13;;
22441;SDS011;11388;54.456;9.752;2023-02-12T01:27:38;5.93;;;2.05;;
22441;SDS011;11388;54.456;9.752;2023-02-12T01:30:05;4.68;;;1.70;;
22441;SDS011;11388;54.456;9.752;2023-02-12T01:32:31;6.57;;;2.03;;
22441;SDS011;11388;54.456;9.752;2023-02-12T01:34:58;6.80;;;2.20;;
22441;SDS011;11388;54.456;9.752;2023-02-12T01:37:24;8.60;;;2.50;;
22441;SDS011;11388;54.456;9.752;2023-02-12T01:39:49;5.82;;;1.90;;
22441;SDS011;11388;54.456;9.752;2023-02-12T01:42:15;7.30;;;1.80;;
22441;SDS011;11388;54.456;9.752;2023-02-12T01:47:36;6.45;;;2.20;;
22441;SDS011;11388;54.456;9.752;2023-02-12T01:50:03;6.28;;;2.30;;
22441;SDS011;11388;54.456;9.752;2023-02-12T01:52:31;9.55;;;2.67;;
22441;SDS011;11388;54.456;9.752;2023-02-12T01:55:01;6.95;;;2.15;;
22441;SDS011;11388;54.456;9.752;2023-02-12T01:57:32;8.82;;;2.10;;
22441;SDS011;11388;54.456;9.752;2023-02-12T02:00:03;7.70;;;2.00;;
22441;SDS011;11388;54.456;9.752;2023-02-12T02:02:34;8.55;;;2.67;;
22441;SDS011;11388;54.456;9.752;2023-02-12T02:05:02;8.40;;;2.45;;
22441;SDS011;11388;54.456;9.752;2023-02-12T02:07:29;8.18;;;2.47;;
22441;SDS011;11388;54.456;9.752;2023-02-12T02:09:55;8.00;;;2.40;;
22441;SDS011;11388;54.456;9.752;2023-02-12T02:12:22;9.65;;;2.90;;
22441;SDS011;11388;54.456;9.752;2023-02-12T02:15:07;9.48;;;2.47;;
22441;SDS011;11388;54.456;9.752;2023-02-12T02:22:56;12.15;;;3.05;;
22441;SDS011;11388;54.456;9.752;2023-02-12T02:31:19;14.05;;;3.20;;
22441;SDS011;11388;54.456;9.752;2023-02-12T02:37:12;14.88;;;3.47;;
22441;SDS011;11388;54.456;9.752;2023-02-12T02:39:54;15.25;;;3.40;;
22441;SDS011;11388;54.456;9.752;2023-02-12T02:42:54;12.15;;;3.50;;
22441;SDS011;11388;54.456;9.752;2023-02-12T02:45:27;14.73;;;3.83;;
22441;SDS011;11388;54.456;9.752;2023-02-12T02:50:37;15.00;;;3.95;;
22441;SDS011;11388;54.456;9.752;2023-02-12T02:53:11;17.15;;;3.97;;
22441;SDS011;11388;54.456;9.752;2023-02-12T02:55:52;17.77;;;4.03;;
22441;SDS011;11388;54.456;9.752;2023-02-12T02:58:30;14.60;;;3.88;;
22441;SDS011;11388;54.456;9.752;2023-02-12T03:01:01;21.05;;;4.22;;
22441;SDS011;11388;54.456;9.752;2023-02-12T03:04:04;16.38;;;4.30;;
22441;SDS011;11388;54.456;9.752;2023-02-12T03:09:18;15.43;;;3.58;;
22441;SDS011;11388;54.456;9.752;2023-02-12T03:11:51;14.93;;;3.63;;
22441;SDS011;11388;54.456;9.752;2023-02-12T03:14:30;17.17;;;4.13;;
22441;SDS011;11388;54.456;9.752;2023-02-12T03:17:02;16.17;;;3.50;;
22441;SDS011;11388;54.456;9.752;2023-02-12T03:19:41;18.80;;;3.72;;
22441;SDS011;11388;54.456;9.752;2023-02-12T03:22:12;17.98;;;4.00;;
22441;SDS011;11388;54.456;9.752;2023-02-12T03:24:47;18.48;;;4.47;;
22441;SDS011;11388;54.456;9.752;2023-02-12T03:30:06;26.85;;;5.40;;
22441;SDS011;11388;54.456;9.752;2023-02-12T03:32:35;29.98;;;5.80;;
22441;SDS011;11388;54.456;9.752;2023-02-12T03:35:23;21.42;;;4.95;;
22441;SDS011;11388;54.456;9.752;2023-02-12T03:38:14;23.20;;;4.63;;
22441;SDS011;11388;54.456;9.752;2023-02-12T03:40:44;23.50;;;4.93;;
22441;SDS011;11388;54.456;9.752;2023-02-12T03:49:02;20.60;;;4.47;;
22441;SDS011;11388;54.456;9.752;2023-02-12T03:51:40;19.27;;;4.07;;
22441;SDS011;11388;54.456;9.752;2023-02-12T03:54:08;25.67;;;4.50;;
22441;SDS011;11388;54.456;9.752;2023-02-12T03:56:44;19.55;;;4.80;;
22441;SDS011;11388;54.456;9.752;2023-02-12T03:59:13;20.35;;;4.30;;
22441;SDS011;11388;54.456;9.752;2023-02-12T04:01:39;15.95;;;4.20;;
22441;SDS011;11388;54.456;9.752;2023-02-12T04:04:06;16.95;;;3.85;;
22441;SDS011;11388;54.456;9.752;2023-02-12T04:06:33;19.48;;;4.60;;
22441;SDS011;11388;54.456;9.752;2023-02-12T04:09:03;20.40;;;3.75;;
22441;SDS011;11388;54.456;9.752;2023-02-12T04:25:42;16.83;;;4.35;;
22441;SDS011;11388;54.456;9.752;2023-02-12T04:33:39;13.93;;;3.83;;
22441;SDS011;11388;54.456;9.752;2023-02-12T04:36:12;28.02;;;4.53;;
22441;SDS011;11388;54.456;9.752;2023-02-12T04:38:52;36.78;;;4.57;;
22441;SDS011;11388;54.456;9.752;2023-02-12T04:41:23;19.17;;;3.92;;
22441;SDS011;11388;54.456;9.752;2023-02-12T04:43:49;14.95;;;3.80;;
22441;SDS011;11388;54.456;9.752;2023-02-12T04:46:15;21.05;;;4.25;;
22441;SDS011;11388;54.456;9.752;2023-02-12T04:48:51;41.15;;;5.20;;
22441;SDS011;11388;54.456;9.752;2023-02-12T04:51:19;19.85;;;4.57;;
22441;SDS011;11388;54.456;9.752;2023-02-12T04:53:45;18.20;;;4.28;;
22441;SDS011;11388;54.456;9.752;2023-02-12T04:56:12;32.30;;;4.40;;
22441;SDS011;11388;54.456;9.752;2023-02-12T04:58:38;27.25;;;4.43;;
22441;SDS011;11388;54.456;9.752;2023-02-12T05:01:04;14.32;;;3.85;;
22441;SDS011;11388;54.456;9.752;2023-02-12T05:03:30;27.60;;;4.80;;
22441;SDS011;11388;54.456;9.752;2023-02-12T05:06:00;24.02;;;4.28;;
22441;SDS011;11388;54.456;9.752;2023-02-12T05:08:30;33.15;;;4.60;;
22441;SDS011;11388;54.456;9.752;2023-02-12T05:10:56;28.67;;;4.88;;
22441;SDS011;11388;54.456;9.752;2023-02-12T05:13:21;22.83;;;4.28;;
22441;SDS011;11388;54.456;9.752;2023-02-12T05:15:47;21.55;;;4.30;;
22441;SDS011;11388;54.456;9.752;2023-02-12T05:18:13;36.10;;;6.07;;
22441;SDS011;11388;54.456;9.752;2023-02-12T05:20:38;35.08;;;5.10;;
22441;SDS011;11388;54.456;9.752;2023-02-12T05:23:04;26.40;;;5.20;;
22441;SDS011;11388;54.456;9.752;2023-02-12T05:25:30;25.35;;;5.15;;
22441;SDS011;11388;54.456;9.752;2023-02-12T05:27:56;28.10;;;4.88;;
22441;SDS011;11388;54.456;9.752;2023-02-12T05:30:22;22.45;;;5.10;;
22441;SDS011;11388;54.456;9.752;2023-02-12T05:32:48;32.20;;;6.38;;
22441;SDS011;11388;54.456;9.752;2023-02-12T05:35:13;29.35;;;5.55;;
22441;SDS011;11388;54.456;9.752;2023-02-12T05:37:39;22.48;;;5.30;;
22441;SDS011;11388;54.456;9.752;2023-02-12T05:40:05;47.38;;;7.38;;
22441;SDS011;11388;54.456;9.752;2023-02-12T05:42:32;21.05;;;4.80;;
22441;SDS011;11388;54.456;9.752;2023-02-12T05:44:58;46.42;;;6.22;;
22441;SDS011;11388;54.456;9.752;2023-02-12T05:47:24;32.90;;;5.80;;
22441;SDS011;11388;54.456;9.752;2023-02-12T05:49:50;20.88;;;5.43;;
22441;SDS011;11388;54.456;9.752;2023-02-12T05:52:15;30.02;;;6.70;;
22441;SDS011;11388;54.456;9.752;2023-02-12T05:54:41;22.70;;;6.22;;
22441;SDS011;11388;54.456;9.752;2023-02-12T05:57:07;21.85;;;6.00;;
22441;SDS011;11388;54.456;9.752;2023-02-12T05:59:32;21.30;;;5.78;;
22441;SDS011;11388;54.456;9.752;2023-02-12T06:01:58;22.70;;;5.68;;
22441;SDS011;11388;54.456;9.752;2023-02-12T06:04:25;24.13;;;5.50;;
22441;SDS011;11388;54.456;9.752;2023-02-12T06:06:53;20.48;;;5.13;;
22441;SDS011;11388;54.456;9.752;2023-02-12T06:09:20;20.13;;;5.20;;
22441;SDS011;11388;54.456;9.752;2023-02-12T06:11:46;20.02;;;5.25;;
22441;SDS011;11388;54.456;9.752;2023-02-12T06:14:13;24.13;;;5.55;;
22441;SDS011;11388;54.456;9.752;2023-02-12T06:16:45;17.98;;;5.18;;
22441;SDS011;11388;54.456;9.752;2023-02-12T06:19:11;17.88;;;5.60;;
22441;SDS011;11388;54.456;9.752;2023-02-12T06:21:37;23.48;;;5.45;;
22441;SDS011;11388;54.456;9.752;2023-02-12T06:24:03;29.73;;;6.35;;
22441;SDS011;11388;54.456;9.752;2023-02-12T06:26:29;29.38;;;6.43;;
22441;SDS011;11388;54.456;9.752;2023-02-12T06:28:55;23.65;;;5.80;;
22441;SDS011;11388;54.456;9.752;2023-02-12T06:31:25;24.90;;;5.72;;
22441;SDS011;11388;54.456;9.752;2023-02-12T06:33:52;30.05;;;6.22;;
22441;SDS011;11388;54.456;9.752;2023-02-12T06:36:19;27.50;;;6.43;;
22441;SDS011;11388;54.456;9.752;2023-02-12T06:38:45;30.70;;;6.63;;
22441;SDS011;11388;54.456;9.752;2023-02-12T06:41:12;28.10;;;6.43;;
22441;SDS011;11388;54.456;9.752;2023-02-12T06:43:38;25.23;;;5.10;;
22441;SDS011;11388;54.456;9.752;2023-02-12T06:46:04;21.85;;;5.15;;
22441;SDS011;11388;54.456;9.752;2023-02-12T06:48:31;21.95;;;5.13;;
22441;SDS011;11388;54.456;9.752;2023-02-12T06:51:07;23.17;;;5.55;;
22441;SDS011;11388;54.456;9.752;2023-02-12T06:53:37;25.23;;;5.70;;
22441;SDS011;11388;54.456;9.752;2023-02-12T06:56:03;21.63;;;5.47;;
22441;SDS011;11388;54.456;9.752;2023-02-12T06:58:30;20.33;;;5.25;;
22441;SDS011;11388;54.456;9.752;2023-02-12T07:00:56;18.75;;;4.07;;
22441;SDS011;11388;54.456;9.752;2023-02-12T07:03:34;19.92;;;4.88;;
22441;SDS011;11388;54.456;9.752;2023-02-12T07:06:02;19.35;;;5.15;;
22441;SDS011;11388;54.456;9.752;2023-02-12T07:08:28;20.33;;;4.95;;
22441;SDS011;11388;54.456;9.752;2023-02-12T07:10:53;17.08;;;4.97;;
22441;SDS011;11388;54.456;9.752;2023-02-12T07:13:19;24.20;;;5.47;;
22441;SDS011;11388;54.456;9.752;2023-02-12T07:15:47;22.55;;;5.20;;
22441;SDS011;11388;54.456;9.752;2023-02-12T07:18:12;20.42;;;4.97;;
22441;SDS011;11388;54.456;9.752;2023-02-12T07:20:38;17.60;;;4.43;;
22441;SDS011;11388;54.456;9.752;2023-02-12T07:23:04;20.10;;;4.95;;
22441;SDS011;11388;54.456;9.752;2023-02-12T07:25:29;16.50;;;4.47;;
22441;SDS011;11388;54.456;9.752;2023-02-12T07:27:55;16.70;;;4.85;;
22441;SDS011;11388;54.456;9.752;2023-02-12T07:30:21;14.85;;;4.13;;
22441;SDS011;11388;54.456;9.752;2023-02-12T07:32:46;19.27;;;4.80;;
22441;SDS011;11388;54.456;9.752;2023-02-12T07:35:12;19.65;;;4.82;;
22441;SDS011;11388;54.456;9.752;2023-02-12T07:37:38;17.63;;;5.32;;
22441;SDS011;11388;54.456;9.752;2023-02-12T07:40:03;18.73;;;4.82;;
22441;SDS011;11388;54.456;9.752;2023-02-12T07:42:30;20.70;;;5.85;;
22441;SDS011;11388;54.456;9.752;2023-02-12T07:44:56;17.15;;;4.13;;
22441;SDS011;11388;54.456;9.752;2023-02-12T07:47:24;18.52;;;4.85;;
22441;SDS011;11388;54.456;9.752;2023-02-12T07:49:50;16.85;;;4.50;;
22441;SDS011;11388;54.456;9.752;2023-02-12T07:52:15;18.20;;;4.93;;
22441;SDS011;11388;54.456;9.752;2023-02-12T07:54:41;13.88;;;3.92;;
22441;SDS011;11388;54.456;9.752;2023-02-12T07:57:07;15.75;;;4.38;;
22441;SDS011;11388;54.456;9.752;2023-02-12T07:59:32;10.82;;;3.58;;
22441;SDS011;11388;54.456;9.752;2023-02-12T08:01:58;14.63;;;3.65;;
22441;SDS011;11388;54.456;9.752;2023-02-12T08:04:25;17.45;;;4.45;;
22441;SDS011;11388;54.456;9.752;2023-02-12T08:06:51;13.57;;;3.70;;
22441;SDS011;11388;54.456;9.752;2023-02-12T08:09:20;17.35;;;4.22;;
22441;SDS011;11388;54.456;9.752;2023-02-12T08:11:47;15.02;;;3.80;;
22441;SDS011;11388;54.456;9.752;2023-02-12T08:14:14;14.02;;;3.90;;
22441;SDS011;11388;54.456;9.752;2023-02-12T08:16:42;11.45;;;3.33;;
22441;SDS011;11388;54.456;9.752;2023-02-12T08:19:09;15.98;;;3.67;;
22441;SDS011;11388;54.456;9.752;2023-02-12T08:21:35;12.85;;;3.50;;
22441;SDS011;11388;54.456;9.752;2023-02-12T08:24:01;12.38;;;3.65;;
22441;SDS011;11388;54.456;9.752;2023-02-12T08:26:34;11.95;;;3.38;;
22441;SDS011;11388;54.456;9.752;2023-02-12T08:29:06;15.43;;;3.65;;
22441;SDS011;11388;54.456;9.752;2023-02-12T08:31:34;12.70;;;3.33;;
22441;SDS011;11388;54.456;9.752;2023-02-12T08:34:02;12.75;;;3.65;;
22441;SDS011;11388;54.456;9.752;2023-02-12T08:36:29;14.98;;;3.53;;
22441;SDS011;11388;54.456;9.752;2023-02-12T08:38:59;14.40;;;3.67;;
22441;SDS011;11388;54.456;9.752;2023-02-12T08:41:26;16.83;;;4.53;;
22441;SDS011;11388;54.456;9.752;2023-02-12T08:43:54;18.50;;;4.78;;
22441;SDS011;11388;54.456;9.752;2023-02-12T08:46:23;16.30;;;4.50;;
22441;SDS011;11388;54.456;9.752;2023-02-12T08:48:54;13.98;;;3.90;;
22441;SDS011;11388;54.456;9.752;2023-02-12T08:51:22;17.00;;;4.28;;
22441;SDS011;11388;54.456;9.752;2023-02-12T08:53:51;23.65;;;4.82;;
22441;SDS011;11388;54.456;9.752;2023-02-12T08:56:19;25.85;;;5.20;;
22441;SDS011;11388;54.456;9.752;2023-02-12T08:58:45;32.72;;;5.32;;
22441;SDS011;11388;54.456;9.752;2023-02-12T09:01:13;21.35;;;4.70;;
22441;SDS011;11388;54.456;9.752;2023-02-12T09:03:41;28.38;;;4.88;;
22441;SDS011;11388;54.456;9.752;2023-02-12T09:06:08;29.60;;;4.20;;
22441;SDS011;11388;54.456;9.752;2023-02-12T09:08:34;31.85;;;4.80;;
22441;SDS011;11388;54.456;9.752;2023-02-12T09:11:13;24.42;;;4.25;;
22441;SDS011;11388;54.456;9.752;2023-02-12T09:13:44;23.60;;;4.13;;
22441;SDS011;11388;54.456;9.752;2023-02-12T09:16:11;14.68;;;4.00;;
22441;SDS011;11388;54.456;9.752;2023-02-12T09:18:38;14.07;;;3.80;;
22441;SDS011;11388;54.456;9.752;2023-02-12T09:21:08;13.98;;;4.32;;
22441;SDS011;11388;54.456;9.752;2023-02-12T09:23:35;22.17;;;3.83;;
22441;SDS011;11388;54.456;9.752;2023-02-12T09:26:06;12.15;;;3.33;;
22441;SDS011;11388;54.456;9.752;2023-02-12T09:28:33;13.23;;;3.60;;
22441;SDS011;11388;54.456;9.752;2023-02-12T09:31:03;15.75;;;3.83;;
22441;SDS011;11388;54.456;9.752;2023-02-12T09:33:30;10.93;;;3.25;;
22441;SDS011;11388;54.456;9.752;2023-02-12T09:35:59;10.00;;;3.15;;
22441;SDS011;11388;54.456;9.752;2023-02-12T09:38:26;12.40;;;3.53;;
22441;SDS011;11388;54.456;9.752;2023-02-12T09:49:23;12.40;;;3.00;;
22441;SDS011;11388;54.456;9.752;2023-02-12T09:51:50;12.73;;;3.60;;
22441;SDS011;11388;54.456;9.752;2023-02-12T09:54:19;11.00;;;3.22;;
22441;SDS011;11388;54.456;9.752;2023-02-12T09:56:51;13.75;;;3.28;;
22441;SDS011;11388;54.456;9.752;2023-02-12T09:59:54;11.07;;;3.25;;
22441;SDS011;11388;54.456;9.752;2023-02-12T10:02:33;12.90;;;3.40;;
22441;SDS011;11388;54.456;9.752;2023-02-12T10:05:04;12.25;;;2.90;;
22441;SDS011;11388;54.456;9.752;2023-02-12T10:15:42;7.03;;;2.22;;
22441;SDS011;11388;54.456;9.752;2023-02-12T10:18:26;9.02;;;2.85;;
22441;SDS011;11388;54.456;9.752;2023-02-12T10:26:45;6.70;;;2.45;;
22441;SDS011;11388;54.456;9.752;2023-02-12T10:28:53;9.40;;;2.97;;
22441;SDS011;11388;54.456;9.752;2023-02-12T10:34:00;6.35;;;2.40;;
22441;SDS011;11388;54.456;9.752;2023-02-12T10:36:47;6.63;;;2.30;;
22441;SDS011;11388;54.456;9.752;2023-02-12T10:39:21;6.38;;;2.45;;
22441;SDS011;11388;54.456;9.752;2023-02-12T10:44:17;6.03;;;2.22;;
22441;SDS011;11388;54.456;9.752;2023-02-12T10:46:42;8.23;;;2.17;;
22441;SDS011;11388;54.456;9.752;2023-02-12T10:49:09;5.32;;;2.28;;
22441;SDS011;11388;54.456;9.752;2023-02-12T10:54:42;7.00;;;2.25;;
22441;SDS011;11388;54.456;9.752;2023-02-12T10:57:19;6.15;;;2.17;;
22441;SDS011;11388;54.456;9.752;2023-02-12T10:59:49;6.15;;;2.15;;
22441;SDS011;11388;54.456;9.752;2023-02-12T11:04:47;7.93;;;2.22;;
22441;SDS011;11388;54.456;9.752;2023-02-12T11:07:14;7.50;;;2.28;;
22441;SDS011;11388;54.456;9.752;2023-02-12T11:14:51;5.03;;;2.33;;
22441;SDS011;11388;54.456;9.752;2023-02-12T11:17:23;6.38;;;1.90;;
22441;SDS011;11388;54.456;9.752;2023-02-12T11:20:28;5.18;;;1.90;;
22441;SDS011;11388;54.456;9.752;2023-02-12T11:22:52;4.50;;;1.83;;
22441;SDS011;11388;54.456;9.752;2023-02-12T11:25:23;4.57;;;1.90;;
22441;SDS011;11388;54.456;9.752;2023-02-12T11:30:28;4.88;;;1.90;;
22441;SDS011;11388;54.456;9.752;2023-02-12T11:33:13;5.00;;;1.60;;
22441;SDS011;11388;54.456;9.752;2023-02-12T11:38:38;4.60;;;1.85;;
22441;SDS011;11388;54.456;9.752;2023-02-12T11:41:20;3.55;;;1.60;;
22441;SDS011;11388;54.456;9.752;2023-02-12T11:43:47;3.40;;;1.50;;
22441;SDS011;11388;54.456;9.752;2023-02-12T11:46:20;2.80;;;1.40;;
22441;SDS011;11388;54.456;9.752;2023-02-12T11:48:49;2.95;;;1.20;;
22441;SDS011;11388;54.456;9.752;2023-02-12T11:51:17;3.60;;;1.33;;
22441;SDS011;11388;54.456;9.752;2023-02-12T11:53:51;2.15;;;1.00;;
22441;SDS011;11388;54.456;9.752;2023-02-12T11:56:18;3.35;;;1.00;;
22441;SDS011;11388;54.456;9.752;2023-02-12T11:58:45;2.50;;;0.88;;
22441;SDS011;11388;54.456;9.752;2023-02-12T12:01:28;2.78;;;0.93;;
22441;SDS011;11388;54.456;9.752;2023-02-12T12:03:59;2.40;;;0.90;;
22441;SDS011;11388;54.456;9.752;2023-02-12T12:06:35;1.77;;;0.80;;
22441;SDS011;11388;54.456;9.752;2023-02-12T12:09:06;1.65;;;0.80;;
22441;SDS011;11388;54.456;9.752;2023-02-12T12:14:26;1.77;;;0.80;;
22441;SDS011;11388;54.456;9.752;2023-02-12T12:17:02;1.75;;;0.60;;
22441;SDS011;11388;54.456;9.752;2023-02-12T12:19:55;2.08;;;0.70;;
22441;SDS011;11388;54.456;9.752;2023-02-12T12:22:49;1.13;;;0.43;;
22441;SDS011;11388;54.456;9.752;2023-02-12T12:25:41;1.33;;;0.50;;
22441;SDS011;11388;54.456;9.752;2023-02-12T12:33:35;0.82;;;0.40;;
22441;SDS011;11388;54.456;9.752;2023-02-12T12:50:40;8.15;;;7.32;;
22441;SDS011;11388;54.456;9.752;2023-02-12T12:58:50;2.15;;;1.20;;
22441;SDS011;11388;54.456;9.752;2023-02-12T13:13:06;2.40;;;1.50;;
22441;SDS011;11388;54.456;9.752;2023-02-12T13:15:47;1.38;;;0.88;;
22441;SDS011;11388;54.456;9.752;2023-02-12T13:18:26;2.00;;;1.30;;
22441;SDS011;11388;54.456;9.752;2023-02-12T13:26:34;0.90;;;0.73;;
22441;SDS011;11388;54.456;9.752;2023-02-12T13:29:12;1.38;;;0.88;;
22441;SDS011;11388;54.456;9.752;2023-02-12T13:31:51;1.08;;;0.90;;
22441;SDS011;11388;54.456;9.752;2023-02-12T13:34:23;1.02;;;0.80;;
22441;SDS011;11388;54.456;9.752;2023-02-12T13:36:52;1.65;;;1.50;;
22441;SDS011;11388;54.456;9.752;2023-02-12T13:49:49;0.50;;;0.50;;
22441;SDS011;11388;54.456;9.752;2023-02-12T13:52:38;0.60;;;0.50;;
22441;SDS011;11388;54.456;9.752;2023-02-12T13:55:24;0.63;;;0.50;;
22441;SDS011;11388;54.456;9.752;2023-02-12T14:00:55;0.60;;;0.50;;
22441;SDS011;11388;54.456;9.752;2023-02-12T14:03:23;0.70;;;0.70;;
22441;SDS011;11388;54.456;9.752;2023-02-12T14:08:46;0.50;;;0.50;;
22441;SDS011;11388;54.456;9.752;2023-02-12T14:11:16;0.55;;;0.55;;
22441;SDS011;11388;54.456;9.752;2023-02-12T14:13:52;2.13;;;0.65;;
22441;SDS011;11388;54.456;9.752;2023-02-12T14:21:57;0.70;;;0.70;;
22441;SDS011;11388;54.456;9.752;2023-02-12T14:27:03;1.20;;;1.02;;
22441;SDS011;11388;54.456;9.752;2023-02-12T14:29:30;0.95;;;0.70;;
22441;SDS011;11388;54.456;9.752;2023-02-12T14:31:56;7.88;;;6.07;;
22441;SDS011;11388;54.456;9.752;2023-02-12T14:36:49;2.75;;;1.80;;
22441;SDS011;11388;54.456;9.752;2023-02-12T14:39:41;10.10;;;8.13;;
22441;SDS011;11388;54.456;9.752;2023-02-12T14:47:01;1.50;;;1.00;;
22441;SDS011;11388;54.456;9.752;2023-02-12T14:49:36;4.55;;;4.15;;
22441;SDS011;11388;54.456;9.752;2023-02-12T14:54:36;1.15;;;0.90;;
22441;SDS011;11388;54.456;9.752;2023-02-12T14:57:07;2.30;;;2.10;;
22441;SDS011;11388;54.456;9.752;2023-02-12T14:59:38;1.52;;;1.20;;
22441;SDS011;11388;54.456;9.752;2023-02-12T15:02:07;1.77;;;1.30;;
22441;SDS011;11388;54.456;9.752;2023-02-12T15:04:51;2.80;;;1.70;;
22441;SDS011;11388;54.456;9.752;2023-02-12T15:07:29;2.85;;;1.70;;
22441;SDS011;11388;54.456;9.752;2023-02-12T15:10:07;4.25;;;2.65;;
22441;SDS011;11388;54.456;9.752;2023-02-12T15:12:42;3.10;;;1.95;;
22441;SDS011;11388;54.456;9.752;2023-02-12T15:15:26;4.25;;;3.85;;
22441;SDS011;11388;54.456;9.752;2023-02-12T15:17:59;3.85;;;2.20;;
22441;SDS011;11388;54.456;9.752;2023-02-12T15:20:53;3.70;;;1.90;;
22441;SDS011;11388;54.456;9.752;2023-02-12T15:23:38;4.05;;;2.38;;
22441;SDS011;11388;54.456;9.752;2023-02-12T15:26:08;5.15;;;2.45;;
22441;SDS011;11388;54.456;9.752;2023-02-12T15:28:38;4.28;;;2.78;;
22441;SDS011;11388;54.456;9.752;2023-02-12T15:31:05;4.95;;;2.72;;
22441;SDS011;11388;54.456;9.752;2023-02-12T15:33:36;4.68;;;2.67;;
22441;SDS011;11388;54.456;9.752;2023-02-12T15:36:06;3.80;;;2.50;;
22441;SDS011;11388;54.456;9.752;2023-02-12T15:38:38;5.63;;;2.80;;
22441;SDS011;11388;54.456;9.752;2023-02-12T15:41:05;4.93;;;2.60;;
22441;SDS011;11388;54.456;9.752;2023-02-12T15:43:33;4.45;;;2.75;;
22441;SDS011;11388;54.456;9.752;2023-02-12T15:46:05;4.00;;;2.67;;
22441;SDS011;11388;54.456;9.752;2023-02-12T15:48:38;5.47;;;2.50;;
22441;SDS011;11388;54.456;9.752;2023-02-12T15:51:08;4.50;;;2.88;;
22441;SDS011;11388;54.456;9.752;2023-02-12T15:53:35;5.93;;;3.05;;
22441;SDS011;11388;54.456;9.752;2023-02-12T15:56:03;5.60;;;2.80;;
22441;SDS011;11388;54.456;9.752;2023-02-12T15:58:36;3.70;;;2.63;;
22441;SDS011;11388;54.456;9.752;2023-02-12T16:01:27;4.93;;;2.95;;
22441;SDS011;11388;54.456;9.752;2023-02-12T16:03:56;4.47;;;2.80;;
22441;SDS011;11388;54.456;9.752;2023-02-12T16:06:24;5.43;;;2.80;;
22441;SDS011;11388;54.456;9.752;2023-02-12T16:08:54;4.13;;;2.65;;
22441;SDS011;11388;54.456;9.752;2023-02-12T16:11:30;5.03;;;2.70;;
22441;SDS011;11388;54.456;9.752;2023-02-12T16:14:01;5.82;;;3.25;;
22441;SDS011;11388;54.456;9.752;2023-02-12T16:16:49;4.70;;;2.80;;
22441;SDS011;11388;54.456;9.752;2023-02-12T16:19:20;4.88;;;3.15;;
22441;SDS011;11388;54.456;9.752;2023-02-12T16:22:00;5.60;;;3.00;;
22441;SDS011;11388;54.456;9.752;2023-02-12T16:26:58;5.28;;;3.30;;
22441;SDS011;11388;54.456;9.752;2023-02-12T16:29:32;6.00;;;3.67;;
22441;SDS011;11388;54.456;9.752;2023-02-12T16:32:02;5.72;;;3.90;;
22441;SDS011;11388;54.456;9.752;2023-02-12T16:34:33;4.68;;;3.50;;
22441;SDS011;11388;54.456;9.752;2023-02-12T16:37:01;4.78;;;3.60;;
22441;SDS011;11388;54.456;9.752;2023-02-12T16:42:24;4.85;;;3.25;;
22441;SDS011;11388;54.456;9.752;2023-02-12T16:44:53;5.85;;;3.72;;
22441;SDS011;11388;54.456;9.752;2023-02-12T16:47:20;6.30;;;4.20;;
22441;SDS011;11388;54.456;9.752;2023-02-12T16:49:55;6.65;;;3.72;;
22441;SDS011;11388;54.456;9.752;2023-02-12T16:52:38;5.72;;;3.75;;
22441;SDS011;11388;54.456;9.752;2023-02-12T16:55:08;4.70;;;3.38;;
22441;SDS011;11388;54.456;9.752;2023-02-12T16:57:40;6.10;;;4.25;;
22441;SDS011;11388;54.456;9.752;2023-02-12T17:00:07;7.70;;;4.43;;
22441;SDS011;11388;54.456;9.752;2023-02-12T17:02:35;6.32;;;3.63;;
22441;SDS011;11388;54.456;9.752;2023-02-12T17:05:02;6.88;;;4.05;;
22441;SDS011;11388;54.456;9.752;2023-02-12T17:07:31;5.60;;;3.80;;
22441;SDS011;11388;54.456;9.752;2023-02-12T17:09:57;6.80;;;3.80;;
22441;SDS011;11388;54.456;9.752;2023-02-12T17:12:24;7.20;;;4.03;;
22441;SDS011;11388;54.456;9.752;2023-02-12T17:14:51;6.88;;;4.20;;
22441;SDS011;11388;54.456;9.752;2023-02-12T17:17:16;6.28;;;3.80;;
22441;SDS011;11388;54.456;9.752;2023-02-12T17:19:42;5.47;;;3.88;;
22441;SDS011;11388;54.456;9.752;2023-02-12T17:22:29;7.55;;;4.00;;
22441;SDS011;11388;54.456;9.752;2023-02-12T17:24:54;6.57;;;4.15;;
22441;SDS011;11388;54.456;9.752;2023-02-12T17:27:20;6.55;;;4.00;;
22441;SDS011;11388;54.456;9.752;2023-02-12T17:29:45;7.18;;;4.40;;
22441;SDS011;11388;54.456;9.752;2023-02-12T17:32:11;6.55;;;4.20;;
22441;SDS011;11388;54.456;9.752;2023-02-12T17:34:37;7.63;;;4.32;;
22441;SDS011;11388;54.456;9.752;2023-02-12T17:37:03;7.90;;;4.30;;
22441;SDS011;11388;54.456;9.752;2023-02-12T17:39:29;8.00;;;4.55;;
22441;SDS011;11388;54.456;9.752;2023-02-12T17:41:55;9.05;;;6.57;;
22441;SDS011;11388;54.456;9.752;2023-02-12T17:44:24;11.32;;;8.82;;
22441;SDS011;11388;54.456;9.752;2023-02-12T17:46:50;6.30;;;3.75;;
22441;SDS011;11388;54.456;9.752;2023-02-12T17:49:15;7.15;;;4.05;;
22441;SDS011;11388;54.456;9.752;2023-02-12T17:51:41;6.05;;;3.72;;
22441;SDS011;11388;54.456;9.752;2023-02-12T17:54:07;6.32;;;3.50;;
22441;SDS011;11388;54.456;9.752;2023-02-12T17:56:32;7.07;;;4.00;;
22441;SDS011;11388;54.456;9.752;2023-02-12T17:58:59;5.20;;;3.60;;